Time;durP1;ratioP1;P1;durP2;ratioP2;P2;SDS_P1;SDS_P2;PMS_P1;PMS_P2;Temp;Humidity;BMP_temperature;BMP_pressure;BME280_temperature;BME280_humidity;BME280_pressure;Samples;Min_cycle;Max_cycle;Signal;HPM_P1;HPM_P2
2022/09/19 03:02:36;;;;;;;0.88;0.40;;;18.40;46.90;;;;;;4871944;28;45732;-61
2022/09/19 03:05:20;;;;;;;0.35;0.30;;;18.40;47.00;;;;;;4881494;29;45980;-61
2022/09/19 03:07:48;;;;;;;0.43;0.28;;;18.40;47.00;;;;;;4878098;28;45419;-62
2022/09/19 03:10:16;;;;;;;1.02;0.40;;;18.30;47.00;;;;;;4850200;29;45258;-61
2022/09/19 03:12:57;;;;;;;1.02;0.40;;;18.40;47.00;;;;;;4873781;29;45038;-61
2022/09/19 03:15:32;;;;;;;0.77;0.22;;;18.30;47.00;;;;;;4877070;28;45811;-60
2022/09/19 03:18:00;;;;;;;0.90;0.60;;;18.30;47.00;;;;;;4860578;29;46083;-61
2022/09/19 03:20:25;;;;;;;1.67;0.70;;;18.40;47.00;;;;;;4846980;29;45565;-62
2022/09/19 03:22:53;;;;;;;0.40;0.20;;;18.40;46.90;;;;;;4879537;29;45250;-61
2022/09/19 03:25:19;;;;;;;1.10;0.40;;;18.40;46.90;;;;;;4867027;29;45513;-61
2022/09/19 03:27:44;;;;;;;0.95;0.30;;;18.40;46.90;;;;;;4875436;29;45297;-62
2022/09/19 03:30:12;;;;;;;0.80;0.30;;;18.30;46.90;;;;;;4895542;28;45571;-60
2022/09/19 03:32:39;;;;;;;3.50;0.40;;;18.30;46.90;;;;;;4891644;28;45390;-61
2022/09/19 03:35:05;;;;;;;0.50;0.30;;;18.30;47.00;;;;;;4864048;28;45571;-61
2022/09/19 03:37:34;;;;;;;0.40;0.30;;;18.30;46.90;;;;;;4900198;28;45387;-61
2022/09/19 03:40:01;;;;;;;0.75;0.30;;;18.30;47.00;;;;;;4864615;29;45613;-61
2022/09/19 03:42:26;;;;;;;0.63;0.30;;;18.30;47.00;;;;;;4879497;29;45088;-61
2022/09/19 03:44:53;;;;;;;0.40;0.30;;;18.30;46.90;;;;;;4880675;29;45284;-61
2022/09/19 03:47:20;;;;;;;0.47;0.30;;;18.30;46.90;;;;;;4893834;28;45038;-61
2022/09/19 03:49:45;;;;;;;0.45;0.30;;;18.30;47.00;;;;;;4882492;28;45214;-62
2022/09/19 03:52:11;;;;;;;0.47;0.30;;;18.30;47.00;;;;;;4876823;29;45389;-60
2022/09/19 03:54:36;;;;;;;0.47;0.30;;;18.30;47.00;;;;;;4879509;29;45735;-61
2022/09/19 03:57:02;;;;;;;0.40;0.30;;;18.30;47.10;;;;;;4896047;28;46015;-60
2022/09/19 03:59:28;;;;;;;0.43;0.32;;;18.30;47.00;;;;;;4863949;29;45471;-62
2022/09/19 04:01:54;;;;;;;1.48;0.40;;;18.30;47.00;;;;;;4887603;28;45021;-61
2022/09/19 04:04:21;;;;;;;1.08;0.30;;;18.30;47.00;;;;;;4874984;29;45350;-61
2022/09/19 04:06:47;;;;;;;0.52;0.32;;;18.20;47.10;;;;;;4857560;28;46570;-60
2022/09/19 04:09:12;;;;;;;1.38;0.32;;;18.20;47.10;;;;;;4876150;28;45298;-60
2022/09/19 04:11:41;;;;;;;1.35;0.40;;;18.20;47.10;;;;;;4881353;28;45584;-62
2022/09/19 04:14:07;;;;;;;0.80;0.40;;;18.20;47.10;;;;;;4895929;28;45532;-61
2022/09/19 04:16:32;;;;;;;0.30;0.30;;;18.20;47.20;;;;;;4878111;29;45867;-61
2022/09/19 04:18:58;;;;;;;1.17;0.43;;;18.20;47.10;;;;;;4900635;28;44975;-61
2022/09/19 04:21:25;;;;;;;0.40;0.30;;;18.20;47.10;;;;;;4880000;29;45043;-61
2022/09/19 04:23:50;;;;;;;0.40;0.32;;;18.20;47.10;;;;;;4864557;28;45301;-61
2022/09/19 04:26:16;;;;;;;0.95;0.40;;;18.30;47.10;;;;;;4881023;29;45264;-61
2022/09/19 04:28:42;;;;;;;1.23;0.60;;;18.20;47.10;;;;;;4881984;29;45335;-60
2022/09/19 04:31:09;;;;;;;0.85;0.35;;;18.30;47.10;;;;;;4880381;29;46162;-60
2022/09/19 04:33:36;;;;;;;0.50;0.30;;;18.30;47.00;;;;;;4884732;28;44693;-60
2022/09/19 04:36:02;;;;;;;0.50;0.30;;;18.20;47.00;;;;;;4880881;29;45174;-60
2022/09/19 04:38:30;;;;;;;1.33;0.40;;;18.20;47.10;;;;;;4863806;29;45227;-61
2022/09/19 04:40:56;;;;;;;0.73;0.40;;;18.20;47.10;;;;;;4899139;28;45617;-61
2022/09/19 04:43:23;;;;;;;0.47;0.20;;;18.20;47.20;;;;;;4863671;29;45149;-62
2022/09/19 04:45:50;;;;;;;0.80;0.40;;;18.20;47.20;;;;;;4881017;28;46176;-61
2022/09/19 04:48:16;;;;;;;1.42;0.50;;;18.20;47.20;;;;;;4868035;28;45415;-61
2022/09/19 04:50:43;;;;;;;1.90;0.70;;;18.20;47.20;;;;;;4880087;28;45502;-60
2022/09/19 04:53:12;;;;;;;3.17;0.68;;;18.20;47.20;;;;;;4862009;29;45014;-61
2022/09/19 04:55:37;;;;;;;3.35;0.40;;;18.20;47.20;;;;;;4897211;28;45951;-61
2022/09/19 04:58:04;;;;;;;1.08;0.40;;;18.20;47.20;;;;;;4881173;29;44794;-61
2022/09/19 05:00:39;;;;;;;1.17;0.45;;;18.20;47.20;;;;;;4897577;28;45308;-60
2022/09/19 05:03:11;;;;;;;0.77;0.50;;;18.20;47.20;;;;;;4884329;28;45256;-61
2022/09/19 05:05:38;;;;;;;0.32;0.30;;;18.20;47.20;;;;;;4880826;28;46395;-61
2022/09/19 05:08:04;;;;;;;1.33;0.40;;;18.20;47.20;;;;;;4875139;29;44695;-61
2022/09/19 05:10:32;;;;;;;0.77;0.40;;;18.20;47.20;;;;;;4877734;28;45395;-60
2022/09/19 05:12:58;;;;;;;0.80;0.30;;;18.20;47.20;;;;;;4878905;28;45439;-61
2022/09/19 05:15:24;;;;;;;1.70;0.40;;;18.20;47.20;;;;;;4895590;28;46017;-62
2022/09/19 05:17:53;;;;;;;0.60;0.20;;;18.20;47.20;;;;;;4896433;28;45380;-61
2022/09/19 05:20:19;;;;;;;1.77;0.60;;;18.20;47.20;;;;;;4882044;29;45562;-61
2022/09/19 05:22:45;;;;;;;2.05;0.47;;;18.20;47.20;;;;;;4884311;29;45342;-60
2022/09/19 05:25:11;;;;;;;1.75;0.65;;;18.20;47.20;;;;;;4895124;29;45343;-60
2022/09/19 05:27:38;;;;;;;1.33;0.50;;;18.20;47.20;;;;;;4879573;28;45271;-60
2022/09/19 05:30:04;;;;;;;1.05;0.55;;;18.10;47.20;;;;;;4899641;28;45702;-61
2022/09/19 05:32:29;;;;;;;1.15;0.30;;;18.10;47.20;;;;;;4877202;28;45483;-60
2022/09/19 05:35:00;;;;;;;1.20;0.50;;;18.20;47.20;;;;;;4895506;28;46461;-61
2022/09/19 05:37:26;;;;;;;1.50;0.30;;;18.10;47.20;;;;;;4877352;29;45205;-60
2022/09/19 05:39:52;;;;;;;2.25;0.60;;;18.10;47.20;;;;;;4899559;28;44933;-61
2022/09/19 05:42:18;;;;;;;0.70;0.38;;;18.10;47.30;;;;;;4894717;28;45184;-61
2022/09/19 05:44:43;;;;;;;1.27;0.45;;;18.10;47.30;;;;;;4879522;29;45599;-61
2022/09/19 05:47:10;;;;;;;0.88;0.28;;;18.10;47.40;;;;;;4896225;28;45652;-60
2022/09/19 05:49:36;;;;;;;0.98;0.40;;;18.10;47.30;;;;;;4878970;28;45072;-61
2022/09/19 05:53:51;;;;;;;1.55;0.70;;;18.10;47.30;;;;;;4886495;29;44910;-60
2022/09/19 05:54:47;;;;;;;1.27;0.40;;;18.20;47.30;;;;;;4884493;29;47354;-60
2022/09/19 05:57:12;;;;;;;0.85;0.50;;;18.20;47.30;;;;;;4897087;28;45058;-60
2022/09/19 05:59:39;;;;;;;;;;;18.20;47.30;;;;;;4883136;28;45494;-62
2022/09/19 06:02:05;;;;;;;;;;;18.10;47.40;;;;;;4899669;28;44919;-62
2022/09/19 06:04:30;;;;;;;;;;;18.20;47.40;;;;;;4899765;28;45156;-61
2022/09/19 06:06:56;;;;;;;;;;;18.20;47.30;;;;;;4900711;29;45168;-62
2022/09/19 06:09:21;;;;;;;;;;;18.30;47.20;;;;;;4899103;28;45391;-62
2022/09/19 06:11:47;;;;;;;;;;;18.30;47.20;;;;;;4901217;28;45012;-63
2022/09/19 06:14:16;;;;;;;;;;;18.40;47.00;;;;;;4900219;28;46104;-63
2022/09/19 06:16:42;;;;;;;;;;;18.60;46.70;;;;;;4901780;28;45526;-62
2022/09/19 06:19:08;;;;;;;;;;;18.80;46.40;;;;;;4897323;29;45170;-61
2022/09/19 06:21:33;;;;;;;;;;;19.00;46.20;;;;;;4896842;29;45114;-61
2022/09/19 06:23:59;;;;;;;;;;;19.10;45.90;;;;;;4899178;28;47054;-61
2022/09/19 06:26:26;;;;;;;;;;;19.30;45.60;;;;;;4898331;28;45638;-61
2022/09/19 06:28:51;;;;;;;;;;;19.50;45.40;;;;;;4901532;28;45174;-60
2022/09/19 06:31:18;;;;;;;;;;;19.70;45.20;;;;;;4894926;28;45236;-61
2022/09/19 06:33:43;;;;;;;;;;;19.80;44.90;;;;;;4905914;28;45216;-62
2022/09/19 06:36:09;;;;;;;;;;;20.00;44.70;;;;;;4898909;28;45384;-63
2022/09/19 06:38:35;;;;;;;;;;;20.20;44.60;;;;;;4898490;28;45414;-63
2022/09/19 06:41:00;;;;;;;;;;;20.30;44.40;;;;;;4900322;28;46174;-63
2022/09/19 06:43:26;;;;;;;;;;;20.50;44.20;;;;;;4898209;28;45987;-63
2022/09/19 06:45:52;;;;;;;;;;;20.70;44.00;;;;;;4902785;28;45636;-62
2022/09/19 06:48:17;;;;;;;;;;;20.80;43.80;;;;;;4899289;28;45475;-61
2022/09/19 06:50:43;;;;;;;;;;;21.00;43.60;;;;;;4882445;29;46341;-60
2022/09/19 06:53:09;;;;;;;;;;;21.20;43.50;;;;;;4899784;28;45266;-63
2022/09/19 06:55:34;;;;;;;;;;;21.30;43.30;;;;;;4901076;28;45355;-61
2022/09/19 06:58:01;;;;;;;;;;;21.40;43.20;;;;;;4900818;29;45174;-61
2022/09/19 07:00:27;;;;;;;;;;;21.60;43.00;;;;;;4898141;28;45257;-64
2022/09/19 07:02:54;;;;;;;;;;;21.70;42.90;;;;;;4898340;28;45083;-65
2022/09/19 07:05:19;;;;;;;;;;;21.80;42.80;;;;;;4875876;29;45449;-65
2022/09/19 07:07:45;;;;;;;;;;;21.90;42.60;;;;;;4897333;29;44922;-63
2022/09/19 07:10:10;;;;;;;;;;;22.00;42.50;;;;;;4897890;29;46071;-64
2022/09/19 07:12:36;;;;;;;;;;;22.10;42.40;;;;;;4901888;28;46125;-64
2022/09/19 07:15:04;;;;;;;;;;;22.20;42.30;;;;;;4903459;28;46078;-69
2022/09/19 07:17:30;;;;;;;;;;;22.30;42.20;;;;;;4884958;29;44701;-62
2022/09/19 07:19:55;;;;;;;;;;;22.40;42.10;;;;;;4896874;29;45363;-60
2022/09/19 07:22:23;;;;;;;;;;;22.50;42.20;;;;;;4899305;28;46096;-62
2022/09/19 07:24:49;;;;;;;;;;;22.60;42.10;;;;;;4897511;28;44747;-60
2022/09/19 07:27:15;;;;;;;;;;;22.70;42.10;;;;;;4897064;28;45656;-63
2022/09/19 07:29:40;;;;;;;;;;;22.70;41.90;;;;;;4899729;28;45229;-62
2022/09/19 07:32:05;;;;;;;;;;;22.80;41.80;;;;;;4897351;29;47100;-62
2022/09/19 07:34:32;;;;;;;;;;;22.90;41.80;;;;;;4897109;28;45044;-60
2022/09/19 07:36:57;;;;;;;;;;;23.00;41.70;;;;;;4900463;28;45603;-62
2022/09/19 07:39:23;;;;;;;;;;;23.00;41.50;;;;;;4899719;29;45478;-61
2022/09/19 07:41:48;;;;;;;;;;;23.10;41.50;;;;;;4899295;29;46784;-64
2022/09/19 07:44:14;;;;;;;;;;;23.10;41.40;;;;;;4901315;28;45095;-62
2022/09/19 07:47:26;;;;;;;;;;;23.20;41.50;;;;;;4880583;29;45200;-60
2022/09/19 07:49:25;;;;;;;;;;;23.30;41.50;;;;;;4899101;29;45756;-63
2022/09/19 07:51:50;;;;;;;;;;;23.40;41.40;;;;;;4898831;29;45916;-60
2022/09/19 07:54:16;;;;;;;;;;;23.40;41.30;;;;;;4900725;28;45482;-61
2022/09/19 07:56:41;;;;;;;;;;;23.50;41.20;;;;;;4900105;28;45514;-56
2022/09/19 07:59:07;;;;;;;;;;;23.60;41.20;;;;;;4897502;29;45451;-63
2022/09/19 08:01:32;;;;;;;;;;;23.70;41.10;;;;;;4897365;29;46058;-57
2022/09/19 08:03:58;;;;;;;;;;;23.80;41.00;;;;;;4902636;28;45707;-61
2022/09/19 08:06:23;;;;;;;;;;;23.80;40.80;;;;;;4902600;28;45272;-60
2022/09/19 08:08:49;;;;;;;;;;;23.90;40.70;;;;;;4897443;29;45203;-63
2022/09/19 08:11:14;;;;;;;;;;;24.00;40.60;;;;;;4881378;29;46437;-60
2022/09/19 08:13:41;;;;;;;;;;;24.10;40.60;;;;;;4882389;28;45644;-66
2022/09/19 08:16:07;;;;;;;;;;;24.10;40.60;;;;;;4902871;28;45584;-60
2022/09/19 08:18:33;;;;;;;;;;;24.10;40.50;;;;;;4894445;29;45583;-61
2022/09/19 08:20:58;;;;;;;;;;;24.20;40.60;;;;;;4897596;29;45368;-59
2022/09/19 08:23:24;;;;;;;1.70;0.25;;;24.30;40.50;;;;;;4898023;29;45364;-61
2022/09/19 08:25:52;;;;;;;1.00;0.30;;;24.30;41.20;;;;;;4879796;29;45366;-62
2022/09/19 08:28:20;;;;;;;1.13;0.20;;;24.40;41.00;;;;;;4897352;29;45209;-61
2022/09/19 08:30:47;;;;;;;0.70;0.20;;;24.50;41.00;;;;;;4897539;29;46064;-62
2022/09/19 08:33:12;;;;;;;;;;;24.50;40.80;;;;;;4898818;29;44850;-60
2022/09/19 08:35:39;;;;;;;;;;;24.60;40.10;;;;;;4895149;28;45785;-62
2022/09/19 08:38:05;;;;;;;;;;;24.60;39.90;;;;;;4903504;28;44875;-57
2022/09/19 08:40:34;;;;;;;;;;;24.70;40.00;;;;;;4899824;28;46406;-59
2022/09/19 08:43:19;;;;;;;;;;;24.70;39.90;;;;;;4881820;28;46084;-61
2022/09/19 08:45:55;;;;;;;;;;;24.80;39.90;;;;;;4904727;28;45244;-58
2022/09/19 08:48:24;;;;;;;;;;;24.80;39.80;;;;;;4902067;28;44670;-58
2022/09/19 08:50:53;;;;;;;;;;;24.90;39.80;;;;;;4878219;29;46102;-60
2022/09/19 08:53:24;;;;;;;;;;;25.00;39.70;;;;;;4877242;29;45577;-59
2022/09/19 08:55:49;;;;;;;;;;;25.10;39.60;;;;;;4898860;28;45277;-59
2022/09/19 08:58:17;;;;;;;;;;;25.20;39.70;;;;;;4881005;29;45641;-60
2022/09/19 09:00:43;;;;;;;;;;;25.20;39.50;;;;;;4893993;29;46152;-58
2022/09/19 09:03:15;;;;;;;;;;;25.30;39.50;;;;;;4881489;28;45238;-61
2022/09/19 09:05:59;;;;;;;;;;;25.40;39.40;;;;;;4896296;29;45496;-61
2022/09/19 09:08:28;;;;;;;;;;;25.40;39.40;;;;;;4882266;29;45293;-61
2022/09/19 09:10:55;;;;;;;;;;;25.50;39.40;;;;;;4896812;29;45537;-62
2022/09/19 09:13:21;;;;;;;;;;;25.50;39.30;;;;;;4877125;28;45062;-64
2022/09/19 09:16:05;;;;;;;;;;;25.50;39.20;;;;;;4901547;28;45457;-61
2022/09/19 09:18:49;;;;;;;;;;;25.60;39.30;;;;;;4881808;29;45277;-64
2022/09/19 09:21:16;;;;;;;;;;;25.60;39.20;;;;;;4892017;29;46156;-66
2022/09/19 09:23:43;;;;;;;;;;;25.60;39.20;;;;;;4893818;28;45517;-63
2022/09/19 09:26:15;;;;;;;;;;;25.70;39.20;;;;;;4902802;28;45382;-62
2022/09/19 09:28:45;;;;;;;;;;;25.70;39.20;;;;;;4900085;29;45653;-59
2022/09/19 09:31:11;;;;;;;;;;;25.70;39.10;;;;;;4880285;29;46562;-59
2022/09/19 09:33:37;;;;;;;;;;;25.80;39.20;;;;;;4900164;28;45480;-64
2022/09/19 09:36:10;;;;;;;;;;;25.80;39.10;;;;;;4888160;28;44759;-65
2022/09/19 09:38:47;;;;;;;;;;;25.80;39.10;;;;;;4888950;28;45781;-65
2022/09/19 09:44:13;;;;;;;;;;;25.90;39.10;;;;;;4896618;28;45046;-62
2022/09/19 09:46:55;;;;;;;;;;;25.90;39.00;;;;;;4907328;28;45288;-64
2022/09/19 09:49:21;;;;;;;;;;;26.00;39.00;;;;;;4863192;29;45605;-64
2022/09/19 09:51:50;;;;;;;;;;;26.00;39.00;;;;;;4880860;28;47405;-63
2022/09/19 09:57:20;;;;;;;;;;;26.00;39.00;;;;;;4896968;28;45750;-61
2022/09/19 10:05:38;;;;;;;;;;;26.10;38.90;;;;;;4882645;28;45642;-64
2022/09/19 10:08:14;;;;;;;;;;;26.10;38.90;;;;;;4882039;29;45204;-58
2022/09/19 10:10:39;;;;;;;;;;;26.10;38.70;;;;;;4900389;28;45586;-60
2022/09/19 10:13:17;;;;;;;;;;;26.20;38.80;;;;;;4872115;29;47205;-66
2022/09/19 10:15:42;;;;;;;;;;;26.20;38.90;;;;;;4885686;28;45226;-64
2022/09/19 10:18:09;;;;;;;;;;;26.20;38.80;;;;;;4903855;28;44715;-61
2022/09/19 10:20:39;;;;;;;;;;;26.10;38.60;;;;;;4901559;28;45064;-60
2022/09/19 10:23:12;;;;;;;;;;;26.10;38.60;;;;;;4888436;29;45549;-60
2022/09/19 10:25:37;;;;;;;;;;;26.00;38.70;;;;;;4885160;28;46311;-59
2022/09/19 10:28:17;;;;;;;;;;;25.90;38.80;;;;;;4884467;29;44873;-63
2022/09/19 10:30:50;;;;;;;;;;;25.80;39.00;;;;;;4885654;28;45329;-59
2022/09/19 10:33:39;;;;;;;;;;;25.80;39.10;;;;;;4903174;28;46390;-58
2022/09/19 10:36:07;;;;;;;;;;;25.70;39.20;;;;;;4879969;28;45140;-64
2022/09/19 10:38:38;;;;;;;;;;;25.70;39.30;;;;;;4904521;28;44722;-57
2022/09/19 10:41:04;;;;;;;;;;;25.70;39.30;;;;;;4880794;29;45243;-59
2022/09/19 10:43:30;;;;;;;;;;;25.70;39.10;;;;;;4896176;28;45729;-58
2022/09/19 10:46:05;;;;;;;;;;;25.80;39.10;;;;;;4886038;28;45410;-62
2022/09/19 10:48:32;;;;;;;;;;;25.80;39.10;;;;;;4896691;28;45532;-58
2022/09/19 10:50:59;;;;;;;;;;;25.80;39.20;;;;;;4881911;29;45070;-54
2022/09/19 10:53:29;;;;;;;;;;;25.80;39.10;;;;;;4895507;28;45474;-58
2022/09/19 10:55:58;;;;;;;;;;;25.80;39.20;;;;;;4899866;28;44715;-59
2022/09/19 10:58:26;;;;;;;;;;;25.80;39.10;;;;;;4901282;28;45515;-55
2022/09/19 11:00:55;;;;;;;;;;;25.90;39.20;;;;;;4895676;28;45796;-58
2022/09/19 11:03:23;;;;;;;;;;;25.90;39.20;;;;;;4900940;28;47114;-58
2022/09/19 11:06:05;;;;;;;;;;;25.90;39.20;;;;;;4903467;28;45042;-57
2022/09/19 11:08:32;;;;;;;;;;;25.90;39.20;;;;;;4885575;29;45374;-59
2022/09/19 11:10:59;;;;;;;;;;;25.90;39.20;;;;;;4884640;29;45494;-60
2022/09/19 11:13:26;;;;;;;;;;;25.90;39.80;;;;;;4881309;29;46356;-54
2022/09/19 11:15:55;;;;;;;;;;;25.90;39.20;;;;;;4886795;28;45529;-56
2022/09/19 11:18:26;;;;;;;;;;;25.90;39.20;;;;;;4886345;29;44921;-54
2022/09/19 11:20:55;;;;;;;;;;;25.90;39.20;;;;;;4885217;28;45429;-56
2022/09/19 11:23:30;;;;;;;;;;;25.90;39.20;;;;;;4881521;29;46202;-56
2022/09/19 11:26:03;;;;;;;;;;;25.90;39.30;;;;;;4898179;28;45325;-57
2022/09/19 11:28:29;;;;;;;;;;;25.90;39.30;;;;;;4897507;28;45088;-57
2022/09/19 11:31:06;;;;;;;;;;;26.00;39.40;;;;;;4903756;28;44675;-56
2022/09/19 11:33:40;;;;;;;;;;;26.00;39.30;;;;;;4896993;28;46193;-54
2022/09/19 11:36:13;;;;;;;;;;;26.00;39.30;;;;;;4888666;29;45201;-59
2022/09/19 11:38:42;;;;;;;;;;;26.00;39.40;;;;;;4868630;28;45240;-56
2022/09/19 11:41:12;;;;;;;;;;;26.00;39.30;;;;;;4898969;28;45126;-59
2022/09/19 11:43:48;;;;;;;;;;;26.00;39.30;;;;;;4898168;28;45926;-57
2022/09/19 11:46:32;;;;;;;;;;;26.00;39.30;;;;;;4886867;29;45488;-55
2022/09/19 11:49:07;;;;;;;;;;;26.00;39.30;;;;;;4898362;28;45497;-52
2022/09/19 11:51:33;;;;;;;;;;;25.90;39.40;;;;;;4883571;28;45234;-57
2022/09/19 11:54:14;;;;;;;;;;;25.80;39.50;;;;;;4901006;28;46128;-55
2022/09/19 11:56:40;;;;;;;;;;;25.80;39.70;;;;;;4864102;28;45595;-60
2022/09/19 11:59:22;;;;;;;;;;;25.80;39.70;;;;;;4900907;28;45372;-58
2022/09/19 12:02:09;;;;;;;;;;;25.80;39.70;;;;;;4893925;28;45165;-59
2022/09/19 12:04:40;;;;;;;;;;;25.80;39.70;;;;;;4890719;28;46005;-55
2022/09/19 12:07:28;;;;;;;;;;;25.80;39.70;;;;;;4885102;29;45370;-55
2022/09/19 12:10:04;;;;;;;;;;;25.90;39.70;;;;;;4892336;28;45168;-57
2022/09/19 12:12:30;;;;;;;;;;;25.90;39.70;;;;;;4886468;29;45298;-54
2022/09/19 12:15:06;;;;;;;;;;;25.90;39.70;;;;;;4883319;29;46883;-53
2022/09/19 12:17:35;;;;;;;;;;;25.90;39.70;;;;;;4898855;28;44995;-52
2022/09/19 12:20:07;;;;;;;;;;;25.90;39.60;;;;;;4885706;29;45483;-55
2022/09/19 12:22:33;;;;;;;;;;;25.90;39.70;;;;;;4898072;28;44648;-59
2022/09/19 12:25:18;;;;;;;;;;;25.90;39.70;;;;;;4867988;29;46759;-58
2022/09/19 12:27:49;;;;;;;;;;;26.00;39.80;;;;;;4882926;28;44944;-59
2022/09/19 12:30:18;;;;;;;;;;;26.00;39.70;;;;;;4886898;29;45341;-56
2022/09/19 12:32:47;;;;;;;;;;;26.00;39.80;;;;;;4884013;29;45178;-58
2022/09/19 12:35:34;;;;;;;;;;;26.00;39.80;;;;;;4899925;28;45208;-56
2022/09/19 12:38:16;;;;;;;;;;;26.00;39.80;;;;;;4894761;28;45562;-55
2022/09/19 12:41:06;;;;;;;;;;;26.00;39.80;;;;;;4881035;28;45130;-57
2022/09/19 12:43:36;;;;;;;;;;;26.00;39.90;;;;;;4885443;28;45621;-57
2022/09/19 12:46:09;;;;;;;;;;;26.10;40.00;;;;;;4888097;28;46229;-52
2022/09/19 12:48:49;;;;;;;;;;;26.00;39.90;;;;;;4884611;28;45233;-56
2022/09/19 12:51:18;;;;;;;;;;;25.90;40.00;;;;;;4900166;28;45286;-56
2022/09/19 12:53:43;;;;;;;;;;;25.80;40.10;;;;;;4900815;28;45221;-55
2022/09/19 12:56:15;;;;;;;;;;;25.70;40.20;;;;;;4905264;28;47161;-57
2022/09/19 12:58:48;;;;;;;;;;;25.70;40.30;;;;;;4901567;28;44719;-58
2022/09/19 13:01:24;;;;;;;;;;;25.60;40.40;;;;;;4904198;28;44956;-56
2022/09/19 13:03:52;;;;;;;;;;;25.60;40.50;;;;;;4882607;28;44667;-56
2022/09/19 13:06:20;;;;;;;;;;;25.50;40.60;;;;;;4901688;28;46158;-60
2022/09/19 13:08:55;;;;;;;;;;;25.50;40.70;;;;;;4909813;28;45459;-60
2022/09/19 13:11:25;;;;;;;;;;;25.50;40.70;;;;;;4881750;29;44769;-54
2022/09/19 13:14:14;;;;;;;;;;;25.50;40.80;;;;;;4902501;28;44649;-62
2022/09/19 13:23:29;;;;;;;;;;;25.40;40.80;;;;;;4900431;28;46014;-54
2022/09/19 13:24:47;;;;;;;;;;;25.30;41.10;;;;;;4887623;28;44774;-58
2022/09/19 13:27:14;;;;;;;;;;;25.30;41.20;;;;;;4902902;28;46196;-56
2022/09/19 13:29:43;;;;;;;;;;;25.20;41.20;;;;;;4904223;28;45452;-57
2022/09/19 13:32:26;;;;;;;;;;;25.20;41.30;;;;;;4903696;28;45437;-59
2022/09/19 13:35:05;;;;;;;;;;;25.20;41.40;;;;;;4903829;29;45377;-56
2022/09/19 13:37:34;;;;;;;;;;;25.10;41.30;;;;;;4898738;28;45979;-56
2022/09/19 13:40:06;;;;;;;;;;;25.10;41.40;;;;;;4906523;28;45133;-59
2022/09/19 13:42:40;;;;;;;;;;;25.10;41.50;;;;;;4881901;28;45123;-59
2022/09/19 13:45:08;;;;;;;;;;;25.00;41.50;;;;;;4880593;29;44887;-55
2022/09/19 13:47:37;;;;;;;;;;;25.00;41.50;;;;;;4897915;28;46148;-60
2022/09/19 13:50:14;;;;;;;;;;;24.90;41.60;;;;;;4885423;29;45439;-53
2022/09/19 13:52:41;;;;;;;;;;;24.90;41.70;;;;;;4883596;28;45555;-57
2022/09/19 13:55:07;;;;;;;;;;;24.80;41.80;;;;;;4885385;29;45538;-57
2022/09/19 13:57:33;;;;;;;;;;;24.80;41.90;;;;;;4904307;28;45915;-55
2022/09/19 14:00:03;;;;;;;;;;;24.80;41.90;;;;;;4902428;28;45221;-55
2022/09/19 14:02:30;;;;;;;;;;;24.80;41.90;;;;;;4897897;28;45021;-54
2022/09/19 14:05:05;;;;;;;;;;;24.70;41.90;;;;;;4891481;28;45308;-56
2022/09/19 14:07:37;;;;;;;;;;;24.70;42.60;;;;;;4893270;28;45148;-58
2022/09/19 14:10:06;;;;;;;;;;;24.70;42.10;;;;;;4899987;28;45193;-58
2022/09/19 14:12:38;;;;;;;;;;;24.60;42.20;;;;;;4899858;28;44804;-59
2022/09/19 14:15:25;;;;;;;;;;;24.60;42.20;;;;;;4899282;28;45220;-56
2022/09/19 14:18:07;;;;;;;;;;;24.60;42.30;;;;;;4901080;28;46888;-55
2022/09/19 14:20:46;;;;;;;;;;;24.50;42.30;;;;;;4897930;28;46034;-57
2022/09/19 14:23:11;;;;;;;;;;;24.50;42.30;;;;;;4895449;28;44980;-57
2022/09/19 14:25:37;;;;;;;;;;;24.40;42.40;;;;;;4896965;28;45083;-56
2022/09/19 14:28:21;;;;;;;;;;;24.40;42.40;;;;;;4896575;28;45025;-59
2022/09/19 14:30:50;;;;;;;;;;;24.40;42.50;;;;;;4896277;28;45476;-55
2022/09/19 14:33:15;;;;;;;;;;;24.40;42.50;;;;;;4890574;28;45235;-56
2022/09/19 14:35:44;;;;;;;;;;;24.30;42.40;;;;;;4893382;28;44960;-58
2022/09/19 14:38:29;;;;;;;;;;;24.30;43.20;;;;;;4893231;28;45981;-57
2022/09/19 14:40:55;;;;;;;;;;;24.30;42.70;;;;;;4901453;28;45531;-57
2022/09/19 14:43:27;;;;;;;;;;;24.30;42.70;;;;;;4899029;28;45303;-59
2022/09/19 14:46:01;;;;;;;;;;;24.20;42.80;;;;;;4892670;28;44797;-61
2022/09/19 14:48:48;;;;;;;;;;;24.20;42.80;;;;;;4868123;28;46403;-60
2022/09/19 14:51:26;;;;;;;;;;;24.10;42.80;;;;;;4893794;28;45228;-59
2022/09/19 14:53:54;;;;;;;;;;;24.10;42.90;;;;;;4895704;28;45567;-57
2022/09/19 14:56:20;;;;;;;;;;;24.10;43.00;;;;;;4899719;28;45874;-60
2022/09/19 14:58:50;;;;;;;;;;;24.00;42.90;;;;;;4895221;28;45207;-60
2022/09/19 15:01:27;;;;;;;;;;;24.00;43.10;;;;;;4900250;28;45340;-59
2022/09/19 15:03:59;;;;;;;;;;;24.00;43.10;;;;;;4881156;28;45505;-59
2022/09/19 15:06:28;;;;;;;;;;;23.90;43.10;;;;;;4895555;28;45614;-58
2022/09/19 15:08:53;;;;;;;;;;;23.90;43.30;;;;;;4898805;28;45969;-59
2022/09/19 15:11:20;;;;;;;;;;;23.80;43.20;;;;;;4896250;28;45510;-59
2022/09/19 15:13:46;;;;;;;;;;;23.80;43.40;;;;;;4898794;28;45197;-57
2022/09/19 15:16:11;;;;;;;;;;;23.80;43.30;;;;;;4899787;28;45165;-60
2022/09/19 15:18:41;;;;;;;;;;;23.70;43.50;;;;;;4891786;28;45944;-61
2022/09/19 15:21:07;;;;;;;;;;;23.70;43.50;;;;;;4882277;29;45310;-57
2022/09/19 15:23:34;;;;;;;;;;;23.60;43.60;;;;;;4873304;28;45610;-56
2022/09/19 15:26:01;;;;;;;;;;;23.60;43.60;;;;;;4875744;28;45655;-59
2022/09/19 15:28:28;;;;;;;;;;;23.60;43.70;;;;;;4890070;28;46017;-59
2022/09/19 15:30:58;;;;;;;;;;;23.50;43.70;;;;;;4889094;28;45782;-62
2022/09/19 15:33:25;;;;;;;;;;;23.50;43.70;;;;;;4891163;28;45600;-58
2022/09/19 15:35:51;;;;;;;;;;;23.40;43.80;;;;;;4890757;28;45321;-59
2022/09/19 15:38:27;;;;;;;;;;;23.40;43.70;;;;;;4891448;28;45964;-61
2022/09/19 15:40:53;;;;;;;;;;;23.40;43.90;;;;;;4894710;28;45376;-60
2022/09/19 15:43:18;;;;;;;;;;;23.40;44.00;;;;;;4890217;28;45354;-59
2022/09/19 15:45:47;;;;;;;;;;;23.30;43.90;;;;;;4891459;28;45343;-60
2022/09/19 15:48:13;;;;;;;;;;;23.30;44.00;;;;;;4891735;28;46208;-56
2022/09/19 15:50:42;;;;;;;;;;;23.30;44.10;;;;;;4894410;28;45124;-62
2022/09/19 15:53:27;;;;;;;;;;;23.20;44.10;;;;;;4878195;29;45793;-60
2022/09/19 15:55:58;;;;;;;;;;;23.20;44.10;;;;;;4874662;28;45306;-62
2022/09/19 15:58:25;;;;;;;;;;;23.20;44.20;;;;;;4879513;29;45996;-59
2022/09/19 16:00:51;;;;;;;;;;;23.20;44.20;;;;;;4892472;28;45425;-61
2022/09/19 16:03:18;;;;;;;;;;;23.10;44.20;;;;;;4894175;28;45254;-59
2022/09/19 16:05:44;;;;;;;;;;;23.10;44.20;;;;;;4893011;28;44923;-59
2022/09/19 16:11:43;;;;;;;;;;;23.00;44.30;;;;;;4892861;28;46002;-56
2022/09/19 16:14:14;;;;;;;;;;;23.00;44.30;;;;;;4880702;28;45625;-60
2022/09/19 16:16:40;;;;;;;;;;;23.00;44.30;;;;;;4892099;28;45648;-58
2022/09/19 16:19:07;;;;;;;;;;;22.90;44.30;;;;;;4879103;29;45395;-59
2022/09/19 16:21:40;;;;;;;;;;;22.90;44.30;;;;;;4872483;29;45525;-61
2022/09/19 16:24:09;;;;;;;;;;;22.90;44.50;;;;;;4876335;29;45391;-61
2022/09/19 16:26:35;;;;;;;;;;;22.90;44.40;;;;;;4893369;28;45535;-53
2022/09/19 16:29:00;;;;;;;;;;;22.80;44.40;;;;;;4894161;28;45953;-60
2022/09/19 16:31:26;;;;;;;;;;;22.80;44.50;;;;;;4893067;29;45748;-61
2022/09/19 16:33:53;;;;;;;;;;;22.80;44.50;;;;;;4880836;28;44925;-62
2022/09/19 16:36:19;;;;;;;;;;;22.80;44.50;;;;;;4880085;29;45708;-61
2022/09/19 16:39:03;;;;;;;;;;;22.80;44.60;;;;;;4890073;28;45889;-59
2022/09/19 16:41:32;;;;;;;;;;;22.70;44.60;;;;;;4891159;28;45585;-60
2022/09/19 16:43:58;;;;;;;;;;;22.70;44.60;;;;;;4890998;28;45638;-61
2022/09/19 16:46:23;;;;;;;;;;;22.70;44.60;;;;;;4894732;28;45653;-59
2022/09/19 16:48:49;;;;;;;;;;;22.70;44.70;;;;;;4892292;28;45905;-59
2022/09/19 16:51:14;;;;;;;;;;;22.60;44.70;;;;;;4892460;28;44949;-57
2022/09/19 16:53:40;;;;;;;;;;;22.60;44.80;;;;;;4891386;28;45551;-57
2022/09/19 16:56:06;;;;;;;;;;;22.60;44.80;;;;;;4893160;28;45556;-59
2022/09/19 16:58:31;;;;;;;;;;;22.60;44.80;;;;;;4890444;28;45796;-62
2022/09/19 17:00:57;;;;;;;;;;;22.50;44.70;;;;;;4889337;28;45509;-60
2022/09/19 17:03:22;;;;;;;;;;;22.50;44.80;;;;;;4892267;28;45377;-58
2022/09/19 17:05:48;;;;;;;;;;;22.50;44.80;;;;;;4885075;28;45407;-58
2022/09/19 17:08:13;;;;;;;;;;;22.50;44.90;;;;;;4890897;28;45913;-61
2022/09/19 17:10:40;;;;;;;;;;;22.50;44.90;;;;;;4891756;28;45135;-60
2022/09/19 17:13:07;;;;;;;;;;;22.40;44.80;;;;;;4889538;28;45035;-59
2022/09/19 17:15:43;;;;;;;;;;;22.40;44.80;;;;;;4892082;28;45663;-58
2022/09/19 17:18:09;;;;;;;;;;;22.40;44.80;;;;;;4890575;28;45605;-60
2022/09/19 17:20:36;;;;;;;;;;;22.40;44.90;;;;;;4873352;28;45776;-60
2022/09/19 17:23:01;;;;;;;;;;;22.30;44.90;;;;;;4892846;28;45068;-58
2022/09/19 17:25:30;;;;;;;;;;;22.30;44.90;;;;;;4893489;28;45562;-58
2022/09/19 17:27:56;;;;;;;;;;;22.30;44.90;;;;;;4872754;28;46296;-57